sensor_id;sensor_type;location;lat;lon;timestamp;P1;durP1;ratioP1;P2;durP2;ratioP2
2257;SDS011;1136;51.574;7.706;2023-05-20T00:00:07;4.70;;;3.17;;
2257;SDS011;1136;51.574;7.706;2023-05-20T00:02:35;3.90;;;3.60;;
2257;SDS011;1136;51.574;7.706;2023-05-20T00:05:02;3.80;;;3.40;;
2257;SDS011;1136;51.574;7.706;2023-05-20T00:07:28;6.03;;;3.73;;
2257;SDS011;1136;51.574;7.706;2023-05-20T00:09:55;11.23;;;3.50;;
2257;SDS011;1136;51.574;7.706;2023-05-20T00:12:21;3.23;;;2.93;;
2257;SDS011;1136;51.574;7.706;2023-05-20T00:14:48;5.10;;;3.37;;
2257;SDS011;1136;51.574;7.706;2023-05-20T00:17:14;4.63;;;3.40;;
2257;SDS011;1136;51.574;7.706;2023-05-20T00:19:41;3.53;;;3.27;;
2257;SDS011;1136;51.574;7.706;2023-05-20T00:22:08;4.00;;;2.83;;
2257;SDS011;1136;51.574;7.706;2023-05-20T00:24:34;3.17;;;2.60;;
2257;SDS011;1136;51.574;7.706;2023-05-20T00:27:01;4.00;;;3.70;;
2257;SDS011;1136;51.574;7.706;2023-05-20T00:29:27;3.30;;;3.00;;
2257;SDS011;1136;51.574;7.706;2023-05-20T00:31:54;3.33;;;3.03;;
2257;SDS011;1136;51.574;7.706;2023-05-20T00:34:21;5.70;;;3.13;;
2257;SDS011;1136;51.574;7.706;2023-05-20T00:36:47;8.53;;;3.10;;
2257;SDS011;1136;51.574;7.706;2023-05-20T00:39:14;3.57;;;2.83;;
2257;SDS011;1136;51.574;7.706;2023-05-20T00:41:40;3.13;;;2.70;;
2257;SDS011;1136;51.574;7.706;2023-05-20T00:44:07;3.13;;;2.83;;
2257;SDS011;1136;51.574;7.706;2023-05-20T00:46:33;3.37;;;3.17;;
2257;SDS011;1136;51.574;7.706;2023-05-20T00:49:00;3.67;;;3.37;;
2257;SDS011;1136;51.574;7.706;2023-05-20T00:51:27;5.17;;;2.80;;
2257;SDS011;1136;51.574;7.706;2023-05-20T00:53:54;3.60;;;3.03;;
2257;SDS011;1136;51.574;7.706;2023-05-20T00:56:21;3.73;;;3.00;;
2257;SDS011;1136;51.574;7.706;2023-05-20T00:58:48;3.50;;;3.20;;
2257;SDS011;1136;51.574;7.706;2023-05-20T01:01:16;8.27;;;3.70;;
2257;SDS011;1136;51.574;7.706;2023-05-20T01:03:42;6.40;;;3.60;;
2257;SDS011;1136;51.574;7.706;2023-05-20T01:06:09;9.00;;;4.10;;
2257;SDS011;1136;51.574;7.706;2023-05-20T01:08:36;3.83;;;3.40;;
2257;SDS011;1136;51.574;7.706;2023-05-20T01:11:07;3.43;;;3.13;;
2257;SDS011;1136;51.574;7.706;2023-05-20T01:13:37;3.03;;;2.83;;
2257;SDS011;1136;51.574;7.706;2023-05-20T01:16:08;3.27;;;3.07;;
2257;SDS011;1136;51.574;7.706;2023-05-20T01:18:35;4.00;;;3.07;;
2257;SDS011;1136;51.574;7.706;2023-05-20T01:21:04;3.20;;;3.00;;
2257;SDS011;1136;51.574;7.706;2023-05-20T01:23:36;5.47;;;3.67;;
2257;SDS011;1136;51.574;7.706;2023-05-20T01:26:05;3.47;;;3.27;;
2257;SDS011;1136;51.574;7.706;2023-05-20T01:28:32;3.80;;;3.50;;
2257;SDS011;1136;51.574;7.706;2023-05-20T01:31:00;5.93;;;3.10;;
2257;SDS011;1136;51.574;7.706;2023-05-20T01:33:29;3.63;;;3.33;;
2257;SDS011;1136;51.574;7.706;2023-05-20T01:35:56;3.67;;;3.37;;
2257;SDS011;1136;51.574;7.706;2023-05-20T01:38:24;6.40;;;4.00;;
2257;SDS011;1136;51.574;7.706;2023-05-20T01:40:51;3.40;;;3.10;;
2257;SDS011;1136;51.574;7.706;2023-05-20T01:43:19;4.53;;;3.37;;
2257;SDS011;1136;51.574;7.706;2023-05-20T01:45:46;3.33;;;3.03;;
2257;SDS011;1136;51.574;7.706;2023-05-20T01:48:13;4.37;;;3.37;;
2257;SDS011;1136;51.574;7.706;2023-05-20T01:50:39;3.80;;;3.40;;
2257;SDS011;1136;51.574;7.706;2023-05-20T01:53:06;4.07;;;3.70;;
2257;SDS011;1136;51.574;7.706;2023-05-20T01:55:35;5.93;;;3.30;;
2257;SDS011;1136;51.574;7.706;2023-05-20T01:58:02;4.43;;;4.10;;
2257;SDS011;1136;51.574;7.706;2023-05-20T02:00:29;3.93;;;3.63;;
2257;SDS011;1136;51.574;7.706;2023-05-20T02:02:56;10.40;;;4.00;;
2257;SDS011;1136;51.574;7.706;2023-05-20T02:05:23;4.30;;;3.90;;
2257;SDS011;1136;51.574;7.706;2023-05-20T02:07:50;4.10;;;3.80;;
2257;SDS011;1136;51.574;7.706;2023-05-20T02:10:16;3.90;;;3.60;;
2257;SDS011;1136;51.574;7.706;2023-05-20T02:12:43;5.20;;;3.40;;
2257;SDS011;1136;51.574;7.706;2023-05-20T02:15:09;3.57;;;3.37;;
2257;SDS011;1136;51.574;7.706;2023-05-20T02:17:36;4.00;;;3.70;;
2257;SDS011;1136;51.574;7.706;2023-05-20T02:20:03;4.80;;;3.90;;
2257;SDS011;1136;51.574;7.706;2023-05-20T02:22:31;4.00;;;3.63;;
2257;SDS011;1136;51.574;7.706;2023-05-20T02:24:58;3.90;;;3.50;;
2257;SDS011;1136;51.574;7.706;2023-05-20T02:27:25;3.33;;;3.13;;
2257;SDS011;1136;51.574;7.706;2023-05-20T02:29:51;6.70;;;3.67;;
2257;SDS011;1136;51.574;7.706;2023-05-20T02:32:18;5.10;;;3.60;;
2257;SDS011;1136;51.574;7.706;2023-05-20T02:34:45;5.47;;;3.83;;
2257;SDS011;1136;51.574;7.706;2023-05-20T02:37:12;3.77;;;3.57;;
2257;SDS011;1136;51.574;7.706;2023-05-20T02:39:38;3.90;;;3.60;;
2257;SDS011;1136;51.574;7.706;2023-05-20T02:42:05;3.67;;;3.37;;
2257;SDS011;1136;51.574;7.706;2023-05-20T02:44:31;3.97;;;3.23;;
2257;SDS011;1136;51.574;7.706;2023-05-20T02:46:58;3.63;;;3.33;;
2257;SDS011;1136;51.574;7.706;2023-05-20T02:49:24;4.07;;;3.50;;
2257;SDS011;1136;51.574;7.706;2023-05-20T02:51:51;4.20;;;3.80;;
2257;SDS011;1136;51.574;7.706;2023-05-20T02:54:17;4.63;;;4.00;;
2257;SDS011;1136;51.574;7.706;2023-05-20T02:56:44;3.80;;;3.50;;
2257;SDS011;1136;51.574;7.706;2023-05-20T02:59:11;3.43;;;3.17;;
2257;SDS011;1136;51.574;7.706;2023-05-20T03:01:37;4.70;;;3.97;;
2257;SDS011;1136;51.574;7.706;2023-05-20T03:04:05;6.40;;;3.50;;
2257;SDS011;1136;51.574;7.706;2023-05-20T03:06:32;5.57;;;3.83;;
2257;SDS011;1136;51.574;7.706;2023-05-20T03:08:59;3.43;;;3.20;;
2257;SDS011;1136;51.574;7.706;2023-05-20T03:11:25;3.20;;;3.00;;
2257;SDS011;1136;51.574;7.706;2023-05-20T03:13:52;4.17;;;3.77;;
2257;SDS011;1136;51.574;7.706;2023-05-20T03:16:18;4.83;;;3.40;;
2257;SDS011;1136;51.574;7.706;2023-05-20T03:18:45;3.37;;;3.10;;
2257;SDS011;1136;51.574;7.706;2023-05-20T03:21:11;3.67;;;3.37;;
2257;SDS011;1136;51.574;7.706;2023-05-20T03:23:38;3.77;;;3.47;;
2257;SDS011;1136;51.574;7.706;2023-05-20T03:26:04;4.27;;;3.60;;
2257;SDS011;1136;51.574;7.706;2023-05-20T03:28:31;3.90;;;3.60;;
2257;SDS011;1136;51.574;7.706;2023-05-20T03:30:58;4.30;;;3.80;;
2257;SDS011;1136;51.574;7.706;2023-05-20T03:33:25;3.67;;;3.37;;
2257;SDS011;1136;51.574;7.706;2023-05-20T03:35:52;4.00;;;3.70;;
2257;SDS011;1136;51.574;7.706;2023-05-20T03:38:18;4.03;;;3.40;;
2257;SDS011;1136;51.574;7.706;2023-05-20T03:40:45;4.60;;;4.10;;
2257;SDS011;1136;51.574;7.706;2023-05-20T03:43:11;3.90;;;3.53;;
2257;SDS011;1136;51.574;7.706;2023-05-20T03:45:38;4.30;;;4.00;;
2257;SDS011;1136;51.574;7.706;2023-05-20T03:48:04;4.20;;;3.80;;
2257;SDS011;1136;51.574;7.706;2023-05-20T03:50:32;4.90;;;4.40;;
2257;SDS011;1136;51.574;7.706;2023-05-20T03:52:58;4.20;;;3.90;;
2257;SDS011;1136;51.574;7.706;2023-05-20T03:55:25;6.03;;;4.17;;
2257;SDS011;1136;51.574;7.706;2023-05-20T03:57:53;5.13;;;4.63;;
2257;SDS011;1136;51.574;7.706;2023-05-20T04:00:20;4.73;;;4.33;;
2257;SDS011;1136;51.574;7.706;2023-05-20T04:02:46;4.33;;;4.03;;
2257;SDS011;1136;51.574;7.706;2023-05-20T04:05:13;4.70;;;4.30;;
2257;SDS011;1136;51.574;7.706;2023-05-20T04:07:39;5.70;;;5.13;;
2257;SDS011;1136;51.574;7.706;2023-05-20T04:10:06;5.27;;;4.80;;
2257;SDS011;1136;51.574;7.706;2023-05-20T04:12:33;5.53;;;5.13;;
2257;SDS011;1136;51.574;7.706;2023-05-20T04:15:01;6.70;;;4.63;;
2257;SDS011;1136;51.574;7.706;2023-05-20T04:17:29;5.23;;;4.73;;
2257;SDS011;1136;51.574;7.706;2023-05-20T04:19:56;7.60;;;5.43;;
2257;SDS011;1136;51.574;7.706;2023-05-20T04:22:25;7.60;;;5.63;;
2257;SDS011;1136;51.574;7.706;2023-05-20T04:24:51;5.30;;;4.90;;
2257;SDS011;1136;51.574;7.706;2023-05-20T04:27:18;5.33;;;4.93;;
2257;SDS011;1136;51.574;7.706;2023-05-20T04:29:45;5.03;;;4.50;;
2257;SDS011;1136;51.574;7.706;2023-05-20T04:32:12;5.60;;;5.10;;
2257;SDS011;1136;51.574;7.706;2023-05-20T04:34:40;5.40;;;4.50;;
2257;SDS011;1136;51.574;7.706;2023-05-20T04:37:07;5.00;;;4.60;;
2257;SDS011;1136;51.574;7.706;2023-05-20T04:39:34;4.93;;;4.53;;
2257;SDS011;1136;51.574;7.706;2023-05-20T04:42:02;5.40;;;4.90;;
2257;SDS011;1136;51.574;7.706;2023-05-20T04:44:28;5.43;;;4.83;;
2257;SDS011;1136;51.574;7.706;2023-05-20T04:46:55;7.07;;;5.20;;
2257;SDS011;1136;51.574;7.706;2023-05-20T04:49:25;4.43;;;4.10;;
2257;SDS011;1136;51.574;7.706;2023-05-20T04:51:51;4.33;;;4.03;;
2257;SDS011;1136;51.574;7.706;2023-05-20T04:54:20;8.80;;;5.67;;
2257;SDS011;1136;51.574;7.706;2023-05-20T04:56:47;4.77;;;4.37;;
2257;SDS011;1136;51.574;7.706;2023-05-20T04:59:13;5.20;;;4.70;;
2257;SDS011;1136;51.574;7.706;2023-05-20T05:01:40;5.03;;;4.00;;
2257;SDS011;1136;51.574;7.706;2023-05-20T05:04:06;4.40;;;4.00;;
2257;SDS011;1136;51.574;7.706;2023-05-20T05:06:33;5.10;;;4.70;;
2257;SDS011;1136;51.574;7.706;2023-05-20T05:09:00;5.93;;;4.73;;
2257;SDS011;1136;51.574;7.706;2023-05-20T05:11:26;5.10;;;4.40;;
2257;SDS011;1136;51.574;7.706;2023-05-20T05:13:53;4.60;;;4.30;;
2257;SDS011;1136;51.574;7.706;2023-05-20T05:16:20;5.53;;;4.53;;
2257;SDS011;1136;51.574;7.706;2023-05-20T05:18:46;4.73;;;4.30;;
2257;SDS011;1136;51.574;7.706;2023-05-20T05:21:13;5.10;;;4.53;;
2257;SDS011;1136;51.574;7.706;2023-05-20T05:23:40;4.50;;;4.10;;
2257;SDS011;1136;51.574;7.706;2023-05-20T05:26:07;4.60;;;4.20;;
2257;SDS011;1136;51.574;7.706;2023-05-20T05:28:34;7.23;;;4.67;;
2257;SDS011;1136;51.574;7.706;2023-05-20T05:31:00;5.27;;;4.03;;
2257;SDS011;1136;51.574;7.706;2023-05-20T05:33:27;4.30;;;4.00;;
2257;SDS011;1136;51.574;7.706;2023-05-20T05:35:54;4.83;;;4.30;;
2257;SDS011;1136;51.574;7.706;2023-05-20T05:38:24;5.30;;;4.90;;
2257;SDS011;1136;51.574;7.706;2023-05-20T05:40:51;4.60;;;4.30;;
2257;SDS011;1136;51.574;7.706;2023-05-20T05:43:18;4.17;;;3.53;;
2257;SDS011;1136;51.574;7.706;2023-05-20T05:45:44;4.60;;;4.20;;
2257;SDS011;1136;51.574;7.706;2023-05-20T05:48:11;6.37;;;4.47;;
2257;SDS011;1136;51.574;7.706;2023-05-20T05:50:37;6.57;;;4.40;;
2257;SDS011;1136;51.574;7.706;2023-05-20T05:53:04;4.93;;;4.47;;
2257;SDS011;1136;51.574;7.706;2023-05-20T05:55:31;7.67;;;6.07;;
2257;SDS011;1136;51.574;7.706;2023-05-20T05:58:01;4.73;;;4.43;;
2257;SDS011;1136;51.574;7.706;2023-05-20T06:00:27;3.97;;;3.67;;
2257;SDS011;1136;51.574;7.706;2023-05-20T06:02:54;6.67;;;4.77;;
2257;SDS011;1136;51.574;7.706;2023-05-20T06:05:21;4.77;;;4.47;;
2257;SDS011;1136;51.574;7.706;2023-05-20T06:07:48;4.97;;;4.33;;
2257;SDS011;1136;51.574;7.706;2023-05-20T06:10:14;4.20;;;3.90;;
2257;SDS011;1136;51.574;7.706;2023-05-20T06:12:41;10.20;;;4.20;;
2257;SDS011;1136;51.574;7.706;2023-05-20T06:15:07;5.40;;;4.40;;
2257;SDS011;1136;51.574;7.706;2023-05-20T06:17:34;4.70;;;4.30;;
2257;SDS011;1136;51.574;7.706;2023-05-20T06:20:01;5.00;;;4.47;;
2257;SDS011;1136;51.574;7.706;2023-05-20T06:22:28;4.30;;;4.00;;
2257;SDS011;1136;51.574;7.706;2023-05-20T06:24:54;4.83;;;4.40;;
2257;SDS011;1136;51.574;7.706;2023-05-20T06:27:21;4.93;;;4.43;;
2257;SDS011;1136;51.574;7.706;2023-05-20T06:29:48;6.03;;;5.50;;
2257;SDS011;1136;51.574;7.706;2023-05-20T06:32:15;7.60;;;4.70;;
2257;SDS011;1136;51.574;7.706;2023-05-20T06:34:41;4.43;;;4.03;;
2257;SDS011;1136;51.574;7.706;2023-05-20T06:37:08;5.30;;;4.80;;
2257;SDS011;1136;51.574;7.706;2023-05-20T06:39:34;5.43;;;5.00;;
2257;SDS011;1136;51.574;7.706;2023-05-20T06:42:01;4.60;;;4.20;;
2257;SDS011;1136;51.574;7.706;2023-05-20T06:44:30;5.33;;;4.83;;
2257;SDS011;1136;51.574;7.706;2023-05-20T06:46:56;6.10;;;4.23;;
2257;SDS011;1136;51.574;7.706;2023-05-20T06:49:23;6.83;;;5.80;;
2257;SDS011;1136;51.574;7.706;2023-05-20T06:51:50;5.23;;;4.73;;
2257;SDS011;1136;51.574;7.706;2023-05-20T06:54:16;5.13;;;4.63;;
2257;SDS011;1136;51.574;7.706;2023-05-20T06:56:43;5.27;;;4.87;;
2257;SDS011;1136;51.574;7.706;2023-05-20T06:59:09;4.57;;;4.20;;
2257;SDS011;1136;51.574;7.706;2023-05-20T07:01:36;5.20;;;4.70;;
2257;SDS011;1136;51.574;7.706;2023-05-20T07:04:03;5.30;;;4.87;;
2257;SDS011;1136;51.574;7.706;2023-05-20T07:06:29;5.70;;;5.30;;
2257;SDS011;1136;51.574;7.706;2023-05-20T07:08:56;10.20;;;4.77;;
2257;SDS011;1136;51.574;7.706;2023-05-20T07:11:23;5.30;;;4.90;;
2257;SDS011;1136;51.574;7.706;2023-05-20T07:13:49;6.13;;;5.50;;
2257;SDS011;1136;51.574;7.706;2023-05-20T07:16:16;7.37;;;6.30;;
2257;SDS011;1136;51.574;7.706;2023-05-20T07:18:43;8.40;;;5.60;;
2257;SDS011;1136;51.574;7.706;2023-05-20T07:21:09;6.30;;;5.47;;
2257;SDS011;1136;51.574;7.706;2023-05-20T07:23:36;5.90;;;5.30;;
2257;SDS011;1136;51.574;7.706;2023-05-20T07:26:02;9.00;;;5.60;;
2257;SDS011;1136;51.574;7.706;2023-05-20T07:28:29;6.97;;;6.30;;
2257;SDS011;1136;51.574;7.706;2023-05-20T07:30:56;6.50;;;5.90;;
2257;SDS011;1136;51.574;7.706;2023-05-20T07:33:23;5.63;;;5.10;;
2257;SDS011;1136;51.574;7.706;2023-05-20T07:35:49;6.70;;;6.10;;
2257;SDS011;1136;51.574;7.706;2023-05-20T07:38:17;8.47;;;7.67;;
2257;SDS011;1136;51.574;7.706;2023-05-20T07:40:43;6.20;;;5.60;;
2257;SDS011;1136;51.574;7.706;2023-05-20T07:43:10;7.30;;;6.50;;
2257;SDS011;1136;51.574;7.706;2023-05-20T07:45:37;8.67;;;5.80;;
2257;SDS011;1136;51.574;7.706;2023-05-20T07:48:04;7.57;;;6.70;;
2257;SDS011;1136;51.574;7.706;2023-05-20T07:50:31;6.67;;;6.10;;
2257;SDS011;1136;51.574;7.706;2023-05-20T07:52:58;7.40;;;6.70;;
2257;SDS011;1136;51.574;7.706;2023-05-20T07:55:24;7.53;;;6.70;;
2257;SDS011;1136;51.574;7.706;2023-05-20T07:57:51;8.00;;;7.20;;
2257;SDS011;1136;51.574;7.706;2023-05-20T08:00:18;8.40;;;7.60;;
2257;SDS011;1136;51.574;7.706;2023-05-20T08:02:44;6.83;;;5.83;;
2257;SDS011;1136;51.574;7.706;2023-05-20T08:05:11;8.63;;;7.77;;
2257;SDS011;1136;51.574;7.706;2023-05-20T08:07:38;7.00;;;6.30;;
2257;SDS011;1136;51.574;7.706;2023-05-20T08:10:05;8.77;;;6.20;;
2257;SDS011;1136;51.574;7.706;2023-05-20T08:12:32;7.87;;;7.17;;
2257;SDS011;1136;51.574;7.706;2023-05-20T08:14:58;9.00;;;7.30;;
2257;SDS011;1136;51.574;7.706;2023-05-20T08:17:25;7.33;;;6.63;;
2257;SDS011;1136;51.574;7.706;2023-05-20T08:19:53;10.20;;;6.40;;
2257;SDS011;1136;51.574;7.706;2023-05-20T08:22:21;8.97;;;7.23;;
2257;SDS011;1136;51.574;7.706;2023-05-20T08:24:48;8.40;;;7.63;;
2257;SDS011;1136;51.574;7.706;2023-05-20T08:27:14;11.43;;;7.60;;
2257;SDS011;1136;51.574;7.706;2023-05-20T08:29:43;8.33;;;7.40;;
2257;SDS011;1136;51.574;7.706;2023-05-20T08:32:12;7.90;;;7.10;;
2257;SDS011;1136;51.574;7.706;2023-05-20T08:34:38;7.57;;;6.90;;
2257;SDS011;1136;51.574;7.706;2023-05-20T08:37:05;7.60;;;6.50;;
2257;SDS011;1136;51.574;7.706;2023-05-20T08:39:31;8.50;;;7.73;;
2257;SDS011;1136;51.574;7.706;2023-05-20T08:41:58;8.60;;;7.53;;
2257;SDS011;1136;51.574;7.706;2023-05-20T08:44:25;9.73;;;7.47;;
2257;SDS011;1136;51.574;7.706;2023-05-20T08:46:53;8.13;;;7.30;;
2257;SDS011;1136;51.574;7.706;2023-05-20T08:49:20;8.40;;;7.53;;
2257;SDS011;1136;51.574;7.706;2023-05-20T08:51:47;8.57;;;7.87;;
2257;SDS011;1136;51.574;7.706;2023-05-20T08:54:14;7.17;;;6.47;;
2257;SDS011;1136;51.574;7.706;2023-05-20T08:56:42;10.07;;;7.60;;
2257;SDS011;1136;51.574;7.706;2023-05-20T08:59:09;10.10;;;7.80;;
2257;SDS011;1136;51.574;7.706;2023-05-20T09:01:41;10.13;;;8.10;;
2257;SDS011;1136;51.574;7.706;2023-05-20T09:04:10;8.03;;;7.10;;
2257;SDS011;1136;51.574;7.706;2023-05-20T09:06:44;8.07;;;7.20;;
2257;SDS011;1136;51.574;7.706;2023-05-20T09:09:12;9.50;;;7.70;;
2257;SDS011;1136;51.574;7.706;2023-05-20T09:11:39;8.50;;;7.70;;
2257;SDS011;1136;51.574;7.706;2023-05-20T09:14:07;8.00;;;7.30;;
2257;SDS011;1136;51.574;7.706;2023-05-20T09:16:34;9.40;;;8.60;;
2257;SDS011;1136;51.574;7.706;2023-05-20T09:19:00;9.63;;;8.67;;
2257;SDS011;1136;51.574;7.706;2023-05-20T09:21:27;14.30;;;9.40;;
2257;SDS011;1136;51.574;7.706;2023-05-20T09:23:54;8.73;;;7.93;;
2257;SDS011;1136;51.574;7.706;2023-05-20T09:26:27;10.03;;;7.97;;
2257;SDS011;1136;51.574;7.706;2023-05-20T09:28:55;8.70;;;7.90;;
2257;SDS011;1136;51.574;7.706;2023-05-20T09:31:26;9.90;;;8.00;;
2257;SDS011;1136;51.574;7.706;2023-05-20T09:34:01;10.73;;;7.90;;
2257;SDS011;1136;51.574;7.706;2023-05-20T09:36:28;9.00;;;8.03;;
2257;SDS011;1136;51.574;7.706;2023-05-20T09:39:00;8.90;;;8.20;;
2257;SDS011;1136;51.574;7.706;2023-05-20T09:41:37;8.63;;;7.93;;
2257;SDS011;1136;51.574;7.706;2023-05-20T09:44:04;9.83;;;8.73;;
2257;SDS011;1136;51.574;7.706;2023-05-20T09:46:35;9.67;;;8.67;;
2257;SDS011;1136;51.574;7.706;2023-05-20T09:49:01;8.63;;;7.87;;
2257;SDS011;1136;51.574;7.706;2023-05-20T09:51:28;9.90;;;9.03;;
2257;SDS011;1136;51.574;7.706;2023-05-20T09:53:55;9.73;;;8.73;;
2257;SDS011;1136;51.574;7.706;2023-05-20T09:56:22;10.27;;;9.40;;
2257;SDS011;1136;51.574;7.706;2023-05-20T09:58:49;9.83;;;8.83;;
2257;SDS011;1136;51.574;7.706;2023-05-20T10:01:16;8.90;;;8.10;;
2257;SDS011;1136;51.574;7.706;2023-05-20T10:03:42;9.97;;;8.97;;
2257;SDS011;1136;51.574;7.706;2023-05-20T10:22:02;9.23;;;8.43;;
2257;SDS011;1136;51.574;7.706;2023-05-20T10:27:08;8.47;;;7.67;;
2257;SDS011;1136;51.574;7.706;2023-05-20T10:29:42;8.20;;;7.50;;
2257;SDS011;1136;51.574;7.706;2023-05-20T10:32:08;10.27;;;7.77;;
2257;SDS011;1136;51.574;7.706;2023-05-20T10:34:45;7.10;;;6.50;;
2257;SDS011;1136;51.574;7.706;2023-05-20T10:37:23;6.80;;;6.23;;
2257;SDS011;1136;51.574;7.706;2023-05-20T10:40:04;9.57;;;6.33;;
2257;SDS011;1136;51.574;7.706;2023-05-20T10:42:36;6.87;;;6.27;;
2257;SDS011;1136;51.574;7.706;2023-05-20T10:45:03;6.23;;;5.70;;
2257;SDS011;1136;51.574;7.706;2023-05-20T10:47:30;6.03;;;5.43;;
2257;SDS011;1136;51.574;7.706;2023-05-20T10:49:57;6.10;;;5.53;;
2257;SDS011;1136;51.574;7.706;2023-05-20T10:52:24;5.30;;;4.90;;
2257;SDS011;1136;51.574;7.706;2023-05-20T10:54:57;5.20;;;4.87;;
2257;SDS011;1136;51.574;7.706;2023-05-20T10:57:25;6.30;;;5.70;;
2257;SDS011;1136;51.574;7.706;2023-05-20T10:59:52;5.77;;;5.30;;
2257;SDS011;1136;51.574;7.706;2023-05-20T11:02:20;6.30;;;5.10;;
2257;SDS011;1136;51.574;7.706;2023-05-20T11:04:57;5.70;;;5.20;;
2257;SDS011;1136;51.574;7.706;2023-05-20T11:07:27;5.63;;;5.13;;
2257;SDS011;1136;51.574;7.706;2023-05-20T11:09:55;6.10;;;5.37;;
2257;SDS011;1136;51.574;7.706;2023-05-20T11:12:23;5.30;;;4.90;;
2257;SDS011;1136;51.574;7.706;2023-05-20T11:14:51;4.70;;;4.30;;
2257;SDS011;1136;51.574;7.706;2023-05-20T11:17:18;4.83;;;4.40;;
2257;SDS011;1136;51.574;7.706;2023-05-20T11:19:45;5.70;;;5.20;;
2257;SDS011;1136;51.574;7.706;2023-05-20T11:22:12;5.43;;;4.60;;
2257;SDS011;1136;51.574;7.706;2023-05-20T11:24:39;5.20;;;4.70;;
2257;SDS011;1136;51.574;7.706;2023-05-20T11:27:06;4.00;;;3.70;;
2257;SDS011;1136;51.574;7.706;2023-05-20T11:29:32;5.00;;;4.60;;
2257;SDS011;1136;51.574;7.706;2023-05-20T11:32:00;4.50;;;4.10;;
2257;SDS011;1136;51.574;7.706;2023-05-20T11:34:33;4.60;;;4.30;;
2257;SDS011;1136;51.574;7.706;2023-05-20T11:37:01;8.87;;;5.83;;
2257;SDS011;1136;51.574;7.706;2023-05-20T11:39:28;6.73;;;4.83;;
2257;SDS011;1136;51.574;7.706;2023-05-20T11:41:56;5.90;;;5.30;;
2257;SDS011;1136;51.574;7.706;2023-05-20T11:44:23;5.77;;;5.30;;
2257;SDS011;1136;51.574;7.706;2023-05-20T11:46:50;5.80;;;5.40;;
2257;SDS011;1136;51.574;7.706;2023-05-20T11:49:17;5.73;;;5.30;;
2257;SDS011;1136;51.574;7.706;2023-05-20T11:51:43;5.77;;;5.27;;
2257;SDS011;1136;51.574;7.706;2023-05-20T11:54:10;6.63;;;5.90;;
2257;SDS011;1136;51.574;7.706;2023-05-20T11:56:37;6.13;;;5.40;;
2257;SDS011;1136;51.574;7.706;2023-05-20T11:59:04;5.97;;;5.20;;
2257;SDS011;1136;51.574;7.706;2023-05-20T12:01:33;5.67;;;5.17;;
2257;SDS011;1136;51.574;7.706;2023-05-20T12:04:06;7.17;;;5.60;;
2257;SDS011;1136;51.574;7.706;2023-05-20T12:06:33;5.30;;;4.83;;
2257;SDS011;1136;51.574;7.706;2023-05-20T12:09:02;7.13;;;5.43;;
2257;SDS011;1136;51.574;7.706;2023-05-20T12:11:34;6.57;;;6.00;;
2257;SDS011;1136;51.574;7.706;2023-05-20T12:14:02;8.23;;;5.53;;
2257;SDS011;1136;51.574;7.706;2023-05-20T12:16:29;6.13;;;5.63;;
2257;SDS011;1136;51.574;7.706;2023-05-20T12:18:56;5.70;;;5.30;;
2257;SDS011;1136;51.574;7.706;2023-05-20T12:21:23;5.40;;;5.00;;
2257;SDS011;1136;51.574;7.706;2023-05-20T12:23:50;5.73;;;5.30;;
2257;SDS011;1136;51.574;7.706;2023-05-20T12:26:27;5.10;;;4.70;;
2257;SDS011;1136;51.574;7.706;2023-05-20T12:28:54;6.80;;;6.30;;
2257;SDS011;1136;51.574;7.706;2023-05-20T12:31:21;8.00;;;7.40;;
2257;SDS011;1136;51.574;7.706;2023-05-20T12:33:48;12.27;;;10.60;;
2257;SDS011;1136;51.574;7.706;2023-05-20T12:36:14;5.53;;;5.10;;
2257;SDS011;1136;51.574;7.706;2023-05-20T12:38:41;4.90;;;4.50;;
2257;SDS011;1136;51.574;7.706;2023-05-20T12:41:08;5.63;;;5.13;;
2257;SDS011;1136;51.574;7.706;2023-05-20T12:43:34;4.80;;;4.27;;
2257;SDS011;1136;51.574;7.706;2023-05-20T12:46:03;5.60;;;5.10;;
2257;SDS011;1136;51.574;7.706;2023-05-20T12:48:29;5.00;;;4.70;;
2257;SDS011;1136;51.574;7.706;2023-05-20T12:50:56;4.97;;;4.67;;
2257;SDS011;1136;51.574;7.706;2023-05-20T12:53:22;5.43;;;5.03;;
2257;SDS011;1136;51.574;7.706;2023-05-20T12:55:49;5.27;;;4.87;;
2257;SDS011;1136;51.574;7.706;2023-05-20T12:58:16;6.00;;;4.20;;
2257;SDS011;1136;51.574;7.706;2023-05-20T13:00:42;5.13;;;4.73;;
2257;SDS011;1136;51.574;7.706;2023-05-20T13:03:09;5.53;;;5.10;;
2257;SDS011;1136;51.574;7.706;2023-05-20T13:05:36;4.90;;;4.60;;
2257;SDS011;1136;51.574;7.706;2023-05-20T13:08:03;5.33;;;4.93;;
2257;SDS011;1136;51.574;7.706;2023-05-20T13:10:29;5.93;;;4.60;;
2257;SDS011;1136;51.574;7.706;2023-05-20T13:12:56;5.50;;;5.00;;
2257;SDS011;1136;51.574;7.706;2023-05-20T13:15:23;5.33;;;4.53;;
2257;SDS011;1136;51.574;7.706;2023-05-20T13:17:50;5.97;;;5.37;;
2257;SDS011;1136;51.574;7.706;2023-05-20T13:20:16;4.73;;;4.37;;
2257;SDS011;1136;51.574;7.706;2023-05-20T13:22:45;4.80;;;4.50;;
2257;SDS011;1136;51.574;7.706;2023-05-20T13:25:11;5.10;;;4.73;;
2257;SDS011;1136;51.574;7.706;2023-05-20T13:27:38;5.93;;;5.47;;
2257;SDS011;1136;51.574;7.706;2023-05-20T13:30:05;4.73;;;4.33;;
2257;SDS011;1136;51.574;7.706;2023-05-20T13:32:33;4.90;;;4.60;;
2257;SDS011;1136;51.574;7.706;2023-05-20T13:34:59;5.00;;;4.60;;
2257;SDS011;1136;51.574;7.706;2023-05-20T13:37:26;5.57;;;5.07;;
2257;SDS011;1136;51.574;7.706;2023-05-20T13:39:52;4.83;;;4.40;;
2257;SDS011;1136;51.574;7.706;2023-05-20T13:42:20;6.00;;;5.30;;
2257;SDS011;1136;51.574;7.706;2023-05-20T13:44:46;5.03;;;4.63;;
2257;SDS011;1136;51.574;7.706;2023-05-20T13:47:13;5.83;;;4.90;;
2257;SDS011;1136;51.574;7.706;2023-05-20T13:49:40;4.67;;;4.37;;
2257;SDS011;1136;51.574;7.706;2023-05-20T13:52:06;5.43;;;5.03;;
2257;SDS011;1136;51.574;7.706;2023-05-20T13:54:33;6.10;;;5.10;;
2257;SDS011;1136;51.574;7.706;2023-05-20T13:56:59;5.40;;;4.90;;
2257;SDS011;1136;51.574;7.706;2023-05-20T13:59:27;5.10;;;4.73;;
2257;SDS011;1136;51.574;7.706;2023-05-20T14:01:53;5.80;;;5.30;;
2257;SDS011;1136;51.574;7.706;2023-05-20T14:04:20;5.57;;;5.13;;
2257;SDS011;1136;51.574;7.706;2023-05-20T14:06:47;5.50;;;4.87;;
2257;SDS011;1136;51.574;7.706;2023-05-20T14:09:14;4.80;;;4.50;;
2257;SDS011;1136;51.574;7.706;2023-05-20T14:11:41;5.70;;;5.10;;
2257;SDS011;1136;51.574;7.706;2023-05-20T14:14:07;5.63;;;5.27;;
2257;SDS011;1136;51.574;7.706;2023-05-20T14:16:34;6.07;;;5.53;;
2257;SDS011;1136;51.574;7.706;2023-05-20T14:19:01;5.80;;;5.30;;
2257;SDS011;1136;51.574;7.706;2023-05-20T14:21:27;5.53;;;5.20;;
2257;SDS011;1136;51.574;7.706;2023-05-20T14:23:54;5.53;;;5.03;;
2257;SDS011;1136;51.574;7.706;2023-05-20T14:26:21;5.70;;;5.20;;
2257;SDS011;1136;51.574;7.706;2023-05-20T14:28:47;5.73;;;5.23;;
2257;SDS011;1136;51.574;7.706;2023-05-20T14:31:14;5.03;;;4.70;;
2257;SDS011;1136;51.574;7.706;2023-05-20T14:33:41;6.43;;;5.93;;
2257;SDS011;1136;51.574;7.706;2023-05-20T14:36:07;5.90;;;5.50;;
2257;SDS011;1136;51.574;7.706;2023-05-20T14:38:34;8.47;;;5.87;;
2257;SDS011;1136;51.574;7.706;2023-05-20T14:41:00;6.50;;;5.93;;
2257;SDS011;1136;51.574;7.706;2023-05-20T14:43:27;7.03;;;6.40;;
2257;SDS011;1136;51.574;7.706;2023-05-20T14:45:53;6.27;;;5.67;;
2257;SDS011;1136;51.574;7.706;2023-05-20T14:48:20;6.00;;;5.50;;
2257;SDS011;1136;51.574;7.706;2023-05-20T14:50:47;5.53;;;5.10;;
2257;SDS011;1136;51.574;7.706;2023-05-20T14:53:15;5.70;;;5.30;;
2257;SDS011;1136;51.574;7.706;2023-05-20T14:55:42;5.87;;;5.47;;
2257;SDS011;1136;51.574;7.706;2023-05-20T14:58:08;6.00;;;5.50;;
2257;SDS011;1136;51.574;7.706;2023-05-20T15:00:35;7.27;;;6.67;;
2257;SDS011;1136;51.574;7.706;2023-05-20T15:03:02;6.30;;;5.80;;
2257;SDS011;1136;51.574;7.706;2023-05-20T15:05:29;5.73;;;5.33;;
2257;SDS011;1136;51.574;7.706;2023-05-20T15:07:56;6.37;;;5.87;;
2257;SDS011;1136;51.574;7.706;2023-05-20T15:10:22;6.73;;;6.07;;
2257;SDS011;1136;51.574;7.706;2023-05-20T15:12:49;6.10;;;5.70;;
2257;SDS011;1136;51.574;7.706;2023-05-20T15:15:16;5.97;;;5.57;;
2257;SDS011;1136;51.574;7.706;2023-05-20T15:17:43;7.07;;;6.47;;
2257;SDS011;1136;51.574;7.706;2023-05-20T15:20:10;6.83;;;6.20;;
2257;SDS011;1136;51.574;7.706;2023-05-20T15:22:37;6.50;;;5.93;;
2257;SDS011;1136;51.574;7.706;2023-05-20T15:25:04;6.60;;;6.00;;
2257;SDS011;1136;51.574;7.706;2023-05-20T15:27:31;6.20;;;5.80;;
2257;SDS011;1136;51.574;7.706;2023-05-20T15:29:57;6.50;;;6.00;;
2257;SDS011;1136;51.574;7.706;2023-05-20T15:32:24;5.77;;;5.37;;